createdAt,value
2023-12-07T00:00:49.661Z,9.30
2023-12-07T00:03:16.763Z,8.15
2023-12-07T00:05:45.574Z,9.45
2023-12-07T00:08:12.591Z,7.90
2023-12-07T00:10:39.591Z,10.95
2023-12-07T00:13:06.858Z,10.23
2023-12-07T00:15:41.718Z,8.13
2023-12-07T00:18:11.702Z,14.73
2023-12-07T00:20:38.620Z,9.85
2023-12-07T00:23:05.602Z,12.30
2023-12-07T00:25:32.663Z,11.65
2023-12-07T00:27:59.493Z,10.43
2023-12-07T00:30:26.344Z,9.90
2023-12-07T00:32:55.705Z,10.10
2023-12-07T00:35:24.294Z,12.05
2023-12-07T00:37:51.224Z,8.57
2023-12-07T00:40:18.098Z,10.07
2023-12-07T00:42:44.971Z,11.48
2023-12-07T00:45:15.921Z,11.18
2023-12-07T00:47:43.572Z,8.95
2023-12-07T00:50:13.152Z,7.85
2023-12-07T00:52:40.069Z,8.95
2023-12-07T00:55:11.657Z,9.73
2023-12-07T00:57:39.600Z,11.00
2023-12-07T01:00:07.373Z,8.00
2023-12-07T01:02:34.175Z,8.70
2023-12-07T01:05:01.472Z,16.00
2023-12-07T01:07:28.463Z,44.88
2023-12-07T01:09:55.404Z,14.85
2023-12-07T01:12:22.401Z,21.15
2023-12-07T01:14:49.559Z,13.25
2023-12-07T01:17:16.689Z,23.48
2023-12-07T01:19:43.537Z,12.98
2023-12-07T01:22:11.465Z,14.13
2023-12-07T01:24:39.071Z,15.38
2023-12-07T01:27:05.860Z,11.23
2023-12-07T01:29:35.610Z,5.90
2023-12-07T01:32:02.395Z,6.35
2023-12-07T01:34:29.294Z,8.70
2023-12-07T01:36:56.177Z,7.78
2023-12-07T01:39:25.451Z,11.18
2023-12-07T01:41:53.084Z,9.40
2023-12-07T01:44:19.982Z,7.57
2023-12-07T01:46:47.160Z,7.55
2023-12-07T01:49:14.306Z,7.03
2023-12-07T01:51:41.186Z,6.47
2023-12-07T01:54:14.101Z,7.82
2023-12-07T01:56:41.353Z,7.03
2023-12-07T01:59:14.134Z,6.50
2023-12-07T02:01:41.196Z,5.80
2023-12-07T02:04:17.711Z,6.15
2023-12-07T02:06:44.519Z,12.82
2023-12-07T02:09:11.341Z,5.53
2023-12-07T02:11:41.226Z,5.90
2023-12-07T02:14:10.420Z,7.00
2023-12-07T02:17:02.902Z,6.13
2023-12-07T02:19:55.134Z,6.10
2023-12-07T02:22:40.698Z,6.53
2023-12-07T02:25:18.129Z,6.30
2023-12-07T02:27:45.946Z,10.30
2023-12-07T02:30:13.457Z,5.50
2023-12-07T02:32:44.726Z,5.88
2023-12-07T02:35:13.022Z,6.32
2023-12-07T02:37:48.420Z,4.90
2023-12-07T02:40:22.798Z,5.70
2023-12-07T02:42:50.564Z,7.37
2023-12-07T02:45:17.513Z,6.25
2023-12-07T02:47:47.340Z,6.57
2023-12-07T02:50:26.271Z,6.15
2023-12-07T02:52:57.527Z,5.60
2023-12-07T02:55:25.066Z,8.40
2023-12-07T02:57:51.902Z,4.82
2023-12-07T03:00:19.123Z,8.05
2023-12-07T03:02:45.867Z,5.22
2023-12-07T03:05:15.054Z,6.28
2023-12-07T03:07:42.654Z,5.22
2023-12-07T03:10:09.579Z,5.78
2023-12-07T03:12:37.430Z,5.43
2023-12-07T03:15:04.534Z,4.63
2023-12-07T03:17:31.381Z,5.93
2023-12-07T03:20:03.516Z,5.32
2023-12-07T03:22:33.154Z,6.80
2023-12-07T03:25:04.988Z,7.78
2023-12-07T03:27:38.696Z,6.43
2023-12-07T03:30:06.364Z,4.75
2023-12-07T03:32:33.386Z,5.32
2023-12-07T03:35:03.340Z,4.85
2023-12-07T03:37:30.325Z,6.97
2023-12-07T03:39:57.204Z,5.50
2023-12-07T03:42:49.741Z,5.57
2023-12-07T03:45:15.399Z,5.80
2023-12-07T03:47:43.369Z,8.05
2023-12-07T03:50:10.487Z,5.78
2023-12-07T03:52:37.499Z,7.40
2023-12-07T03:55:04.707Z,4.13
2023-12-07T03:57:37.282Z,5.95
2023-12-07T04:00:04.423Z,5.88
2023-12-07T04:02:33.925Z,5.88
2023-12-07T04:05:05.257Z,6.28
2023-12-07T04:07:32.159Z,5.00
2023-12-07T04:10:01.837Z,5.95
2023-12-07T04:12:31.774Z,5.70
2023-12-07T04:14:59.582Z,4.90
2023-12-07T04:17:26.402Z,6.63
2023-12-07T04:19:53.353Z,6.20
2023-12-07T04:22:20.196Z,5.22
2023-12-07T04:24:46.967Z,5.47
2023-12-07T04:27:17.929Z,5.50
2023-12-07T04:29:46.742Z,7.13
2023-12-07T04:32:13.650Z,4.30
2023-12-07T04:34:40.489Z,6.88
2023-12-07T04:37:17.410Z,6.57
2023-12-07T04:39:49.464Z,6.32
2023-12-07T04:42:25.037Z,4.25
2023-12-07T04:44:51.954Z,4.95
2023-12-07T04:47:22.701Z,6.40
2023-12-07T04:49:49.543Z,6.30
2023-12-07T04:52:16.543Z,4.65
2023-12-07T04:54:43.333Z,11.05
2023-12-07T04:57:10.181Z,8.90
2023-12-07T04:59:38.169Z,4.47
2023-12-07T05:02:06.287Z,5.32
2023-12-07T05:04:33.811Z,6.97
2023-12-07T05:07:04.183Z,5.07
2023-12-07T05:09:30.967Z,6.10
2023-12-07T05:12:03.058Z,4.13
2023-12-07T05:14:29.872Z,6.50
2023-12-07T05:16:56.636Z,7.32
2023-12-07T05:19:24.721Z,5.50
2023-12-07T05:22:02.978Z,5.40
2023-12-07T05:24:29.904Z,8.80
2023-12-07T05:27:01.474Z,6.22
2023-12-07T05:29:33.722Z,4.53
2023-12-07T05:32:07.973Z,5.70
2023-12-07T05:34:38.890Z,6.22
2023-12-07T05:37:05.756Z,5.40
2023-12-07T05:39:32.635Z,6.18
2023-12-07T05:41:59.451Z,7.40
2023-12-07T05:44:26.242Z,4.60
2023-12-07T05:46:54.749Z,13.40
2023-12-07T05:49:21.809Z,5.57
2023-12-07T05:51:48.702Z,10.25
2023-12-07T05:54:15.559Z,7.68
2023-12-07T05:56:45.078Z,6.05
2023-12-07T05:59:12.326Z,4.57
2023-12-07T06:01:39.165Z,7.32
2023-12-07T06:04:09.517Z,4.95
2023-12-07T06:06:36.766Z,4.90
2023-12-07T06:09:08.245Z,6.30
2023-12-07T06:11:42.393Z,7.07
2023-12-07T06:14:10.542Z,3.88
2023-12-07T06:16:37.477Z,4.30
2023-12-07T06:19:04.811Z,5.10
2023-12-07T06:21:31.828Z,4.70
2023-12-07T06:23:58.833Z,7.05
2023-12-07T06:26:25.986Z,5.63
2023-12-07T06:28:52.787Z,7.15
2023-12-07T06:31:19.574Z,6.03
2023-12-07T06:33:52.838Z,5.63
2023-12-07T06:36:24.795Z,9.38
2023-12-07T06:38:51.592Z,8.15
2023-12-07T06:41:18.393Z,10.57
2023-12-07T06:43:48.559Z,10.60
2023-12-07T06:46:15.456Z,10.45
2023-12-07T06:48:49.721Z,9.68
2023-12-07T06:51:17.655Z,7.82
2023-12-07T06:53:46.224Z,5.57
2023-12-07T06:56:13.241Z,11.43
2023-12-07T06:58:40.224Z,5.57
2023-12-07T07:01:07.951Z,5.05
2023-12-07T07:03:34.887Z,8.48
2023-12-07T07:06:01.964Z,5.45
2023-12-07T07:08:32.145Z,4.43
2023-12-07T07:10:59.075Z,3.88
2023-12-07T07:13:26.018Z,8.52
2023-12-07T07:15:58.213Z,6.20
2023-12-07T07:18:24.972Z,4.93
2023-12-07T07:20:51.806Z,6.22
2023-12-07T07:23:18.599Z,6.63
2023-12-07T07:25:45.409Z,8.43
2023-12-07T07:28:13.948Z,5.22
2023-12-07T07:30:40.858Z,7.85
2023-12-07T07:33:07.728Z,6.53
2023-12-07T07:35:34.554Z,9.82
2023-12-07T07:38:01.842Z,6.07
2023-12-07T07:40:28.777Z,5.90
2023-12-07T07:42:58.573Z,4.80
2023-12-07T07:45:26.121Z,9.13
2023-12-07T07:47:53.194Z,5.28
2023-12-07T07:50:20.067Z,6.20
2023-12-07T07:52:49.607Z,5.85
2023-12-07T07:55:19.543Z,6.07
2023-12-07T07:57:46.435Z,5.63
2023-12-07T08:00:14.954Z,5.32
2023-12-07T08:02:41.775Z,5.70
2023-12-07T08:05:10.692Z,6.35
2023-12-07T08:07:41.223Z,5.68
2023-12-07T08:10:08.741Z,5.88
2023-12-07T08:12:38.760Z,11.70
2023-12-07T08:15:25.025Z,5.93
2023-12-07T08:18:07.329Z,4.70
2023-12-07T08:20:46.069Z,3.63
2023-12-07T08:23:20.910Z,4.13
2023-12-07T08:25:57.200Z,4.38
2023-12-07T08:28:28.256Z,5.82
2023-12-07T08:30:55.145Z,5.25
2023-12-07T08:33:32.322Z,4.05
2023-12-07T08:36:00.116Z,4.93
2023-12-07T08:38:43.149Z,3.03
2023-12-07T08:41:09.950Z,4.15
2023-12-07T08:43:39.144Z,3.75
2023-12-07T08:46:06.132Z,4.80
2023-12-07T08:48:41.131Z,5.85
2023-12-07T08:51:13.047Z,3.95
2023-12-07T08:53:52.432Z,3.60
2023-12-07T08:56:20.963Z,3.05
2023-12-07T08:58:47.927Z,3.30
2023-12-07T09:01:26.190Z,3.15
2023-12-07T09:03:59.414Z,4.03
2023-12-07T09:06:34.479Z,4.88
2023-12-07T09:09:01.270Z,3.20
2023-12-07T09:11:38.653Z,3.65
2023-12-07T09:14:11.301Z,4.43
2023-12-07T09:16:51.029Z,5.55
2023-12-07T09:19:18.804Z,4.40
2023-12-07T09:21:49.112Z,5.18
2023-12-07T09:24:16.274Z,3.72
2023-12-07T09:26:43.040Z,3.72
2023-12-07T09:29:10.118Z,6.65
2023-12-07T09:31:36.880Z,4.45
2023-12-07T09:34:12.626Z,7.80
2023-12-07T09:36:40.766Z,4.28
2023-12-07T09:39:07.735Z,6.43
2023-12-07T09:41:34.843Z,8.02
2023-12-07T09:44:01.740Z,9.68
2023-12-07T09:46:37.574Z,9.57
2023-12-07T09:49:05.095Z,9.38
2023-12-07T09:51:33.772Z,8.02
2023-12-07T09:54:00.705Z,8.25
2023-12-07T09:56:27.452Z,7.57
2023-12-07T09:58:56.428Z,9.68
2023-12-07T10:01:29.809Z,11.05
2023-12-07T10:04:24.805Z,10.93
2023-12-07T10:07:12.456Z,9.63
2023-12-07T10:09:45.380Z,11.98
2023-12-07T10:12:12.168Z,10.95
2023-12-07T10:14:39.595Z,16.52
2023-12-07T10:17:07.826Z,15.45
2023-12-07T10:19:34.686Z,15.52
2023-12-07T10:22:16.956Z,15.88
2023-12-07T10:24:43.804Z,16.77
2023-12-07T10:27:10.586Z,17.67
2023-12-07T10:29:38.596Z,17.80
2023-12-07T10:32:05.934Z,18.02
2023-12-07T10:34:33.760Z,17.40
2023-12-07T10:37:00.653Z,16.65
2023-12-07T10:39:35.146Z,16.02
2023-12-07T10:42:08.116Z,14.93
2023-12-07T10:44:41.319Z,15.10
2023-12-07T10:47:12.667Z,14.63
2023-12-07T10:49:48.021Z,15.40
2023-12-07T10:52:17.568Z,17.73
2023-12-07T10:55:07.796Z,13.25
2023-12-07T10:57:35.463Z,15.70
2023-12-07T11:00:14.590Z,17.85
2023-12-07T11:02:43.882Z,15.45
2023-12-07T11:05:11.163Z,14.25
2023-12-07T11:08:10.841Z,16.92
2023-12-07T11:10:49.498Z,11.90
2023-12-07T11:13:18.210Z,16.98
2023-12-07T11:15:52.248Z,16.35
2023-12-07T11:18:19.170Z,12.35
2023-12-07T11:20:47.488Z,18.90
2023-12-07T11:23:18.549Z,16.48
2023-12-07T11:25:50.022Z,14.98
2023-12-07T11:28:17.413Z,15.60
2023-12-07T11:30:52.173Z,16.15
2023-12-07T11:33:30.885Z,20.45
2023-12-07T11:36:01.411Z,14.98
2023-12-07T11:38:28.260Z,15.88
2023-12-07T11:40:58.940Z,14.60
2023-12-07T11:43:42.881Z,14.43
2023-12-07T11:46:11.124Z,14.98
2023-12-07T11:48:45.624Z,15.77
2023-12-07T11:51:12.386Z,15.30
2023-12-07T11:53:39.440Z,16.50
2023-12-07T11:56:09.544Z,14.80
2023-12-07T11:58:40.923Z,17.42
2023-12-07T12:01:10.387Z,16.50
2023-12-07T12:03:37.986Z,15.60
2023-12-07T12:06:08.849Z,13.85
2023-12-07T12:08:37.406Z,12.88
2023-12-07T12:11:04.496Z,13.85
2023-12-07T12:13:42.347Z,16.63
2023-12-07T12:16:22.452Z,15.88
2023-12-07T12:18:55.630Z,13.27
2023-12-07T12:21:33.163Z,15.90
2023-12-07T12:24:00.832Z,13.82
2023-12-07T12:26:28.199Z,15.65
2023-12-07T12:28:55.279Z,13.80
2023-12-07T12:31:22.403Z,16.83
2023-12-07T12:33:49.830Z,14.15
2023-12-07T12:36:21.881Z,15.70
2023-12-07T12:38:50.500Z,11.88
2023-12-07T12:41:21.722Z,12.48
2023-12-07T12:43:48.746Z,15.35
2023-12-07T12:46:17.317Z,14.55
2023-12-07T12:48:54.886Z,14.43
2023-12-07T12:51:21.713Z,11.02
2023-12-07T12:53:51.175Z,15.82
2023-12-07T12:56:23.590Z,10.70
2023-12-07T12:58:56.822Z,14.10
2023-12-07T13:04:04.285Z,16.80
2023-12-07T13:06:35.525Z,13.27
2023-12-07T13:09:02.269Z,12.77
2023-12-07T13:11:29.110Z,15.68
2023-12-07T13:13:55.964Z,12.73
2023-12-07T13:16:22.752Z,15.25
2023-12-07T13:18:56.928Z,12.98
2023-12-07T13:23:57.140Z,12.88
2023-12-07T13:26:23.989Z,14.10
2023-12-07T13:28:50.859Z,11.95
2023-12-07T13:31:17.726Z,15.05
2023-12-07T13:33:50.667Z,14.68
2023-12-07T13:36:26.031Z,14.77
2023-12-07T13:38:54.320Z,15.75
2023-12-07T13:41:21.350Z,15.35
2023-12-07T13:43:53.349Z,16.90
2023-12-07T13:46:20.660Z,16.70
2023-12-07T13:48:49.579Z,18.40
2023-12-07T13:51:17.372Z,21.33
2023-12-07T13:53:46.067Z,23.15
2023-12-07T13:56:12.847Z,17.70
2023-12-07T13:58:39.637Z,16.67
2023-12-07T14:01:10.094Z,20.88
2023-12-07T14:03:37.107Z,21.30
2023-12-07T14:06:14.956Z,21.98
2023-12-07T14:08:47.797Z,26.95
2023-12-07T14:11:14.546Z,17.20
2023-12-07T14:13:47.079Z,18.17
2023-12-07T14:16:20.165Z,26.10
2023-12-07T14:21:52.171Z,19.90
2023-12-07T14:24:26.855Z,20.02
2023-12-07T14:26:55.891Z,21.70
2023-12-07T14:29:27.248Z,20.02
2023-12-07T14:31:55.170Z,15.88
2023-12-07T14:34:33.394Z,23.98
2023-12-07T14:37:02.310Z,21.15
2023-12-07T14:39:42.773Z,21.05
2023-12-07T14:42:25.131Z,20.50
2023-12-07T14:44:55.364Z,20.13
2023-12-07T14:47:25.319Z,20.75
2023-12-07T14:50:08.730Z,22.60
2023-12-07T14:52:39.011Z,18.83
2023-12-07T14:55:07.029Z,20.73
2023-12-07T14:57:33.912Z,22.67
2023-12-07T15:00:00.914Z,21.48
2023-12-07T15:02:32.648Z,22.52
2023-12-07T15:05:03.593Z,25.60
2023-12-07T15:07:30.741Z,22.63
2023-12-07T15:10:01.536Z,24.00
2023-12-07T15:12:31.212Z,23.00
2023-12-07T15:14:58.275Z,24.33
2023-12-07T15:17:25.277Z,26.10
2023-12-07T15:19:52.538Z,26.60
2023-12-07T15:22:29.853Z,29.52
2023-12-07T15:25:10.281Z,24.50
2023-12-07T15:27:41.945Z,30.02
2023-12-07T15:30:09.475Z,30.10
2023-12-07T15:32:46.097Z,25.75
2023-12-07T15:35:22.747Z,27.65
2023-12-07T15:38:01.980Z,30.23
2023-12-07T15:40:29.082Z,27.20
2023-12-07T15:42:56.165Z,32.45
2023-12-07T15:45:23.024Z,29.73
2023-12-07T15:47:49.952Z,33.03
2023-12-07T15:50:22.489Z,27.33
2023-12-07T15:52:49.377Z,30.23
2023-12-07T15:55:17.006Z,25.48
2023-12-07T15:57:44.247Z,25.98
2023-12-07T16:00:15.782Z,27.45
2023-12-07T16:02:51.852Z,32.35
2023-12-07T16:05:19.793Z,38.03
2023-12-07T16:07:47.315Z,36.45
2023-12-07T16:10:17.504Z,35.85
2023-12-07T16:12:44.437Z,32.22
2023-12-07T16:15:16.341Z,32.30
2023-12-07T16:17:44.658Z,28.80
2023-12-07T16:20:16.845Z,28.60
2023-12-07T16:22:54.279Z,34.08
2023-12-07T16:25:23.197Z,32.50
2023-12-07T16:27:51.975Z,34.60
2023-12-07T16:30:18.885Z,33.28
2023-12-07T16:32:55.347Z,33.50
2023-12-07T16:35:22.512Z,35.75
2023-12-07T16:37:49.283Z,37.13
2023-12-07T16:40:20.260Z,33.55
2023-12-07T16:42:47.086Z,40.00
2023-12-07T16:45:13.987Z,39.75
2023-12-07T16:47:40.886Z,39.15
2023-12-07T16:50:08.575Z,42.22
2023-12-07T16:52:37.459Z,50.10
2023-12-07T16:55:08.760Z,37.65
2023-12-07T16:57:35.570Z,42.80
2023-12-07T17:00:02.378Z,42.85
2023-12-07T17:02:29.205Z,41.05
2023-12-07T17:04:59.928Z,45.10
2023-12-07T17:07:30.072Z,42.60
2023-12-07T17:09:58.267Z,38.97
2023-12-07T17:12:26.864Z,34.55
2023-12-07T17:14:53.997Z,39.05
2023-12-07T17:17:20.808Z,43.67
2023-12-07T17:19:52.406Z,41.80
2023-12-07T17:22:19.309Z,42.05
2023-12-07T17:24:46.171Z,39.08
2023-12-07T17:27:13.010Z,38.97
2023-12-07T17:29:48.562Z,38.30
2023-12-07T17:32:16.005Z,39.05
2023-12-07T17:34:44.863Z,37.08
2023-12-07T17:37:12.907Z,37.03
2023-12-07T17:39:41.661Z,36.60
2023-12-07T17:42:11.663Z,36.15
2023-12-07T17:44:41.980Z,40.30
2023-12-07T17:47:08.894Z,36.92
2023-12-07T17:49:37.054Z,38.30
2023-12-07T17:52:04.242Z,39.15
2023-12-07T17:54:30.987Z,40.80
2023-12-07T17:57:03.298Z,38.03
2023-12-07T17:59:30.145Z,38.70
2023-12-07T18:01:56.889Z,40.95
2023-12-07T18:04:25.088Z,52.58
2023-12-07T18:06:55.310Z,41.25
2023-12-07T18:09:24.163Z,44.40
2023-12-07T18:11:53.827Z,42.38
2023-12-07T18:14:20.570Z,42.45
2023-12-07T18:16:47.393Z,44.65
2023-12-07T18:19:18.419Z,49.08
2023-12-07T18:21:45.780Z,40.13
2023-12-07T18:24:12.631Z,44.28
2023-12-07T18:26:41.455Z,43.20
2023-12-07T18:29:08.351Z,42.95
2023-12-07T18:31:38.249Z,42.33
2023-12-07T18:34:05.119Z,44.30
2023-12-07T18:36:34.353Z,40.72
2023-12-07T18:39:01.157Z,44.28
2023-12-07T18:41:29.875Z,40.28
2023-12-07T18:43:56.720Z,41.55
2023-12-07T18:46:23.494Z,39.30
2023-12-07T18:48:50.410Z,38.80
2023-12-07T18:51:17.452Z,42.10
2023-12-07T18:53:44.304Z,41.15
2023-12-07T18:56:11.253Z,46.03
2023-12-07T18:58:38.075Z,40.50
2023-12-07T19:01:07.938Z,40.05
2023-12-07T19:03:34.709Z,39.33
2023-12-07T19:06:01.523Z,40.08
2023-12-07T19:08:28.447Z,35.20
2023-12-07T19:10:57.314Z,38.60
2023-12-07T19:13:34.275Z,42.53
2023-12-07T19:16:01.064Z,38.05
2023-12-07T19:18:27.930Z,38.97
2023-12-07T19:20:54.887Z,31.10
2023-12-07T19:23:21.633Z,33.78
2023-12-07T19:25:53.030Z,36.22
2023-12-07T19:28:20.292Z,32.47
2023-12-07T19:30:47.027Z,35.33
2023-12-07T19:33:17.330Z,32.08
2023-12-07T19:35:44.308Z,32.15
2023-12-07T19:38:14.419Z,30.98
2023-12-07T19:40:41.159Z,28.58
2023-12-07T19:43:07.950Z,30.40
2023-12-07T19:45:34.786Z,43.58
2023-12-07T19:48:08.052Z,33.03
2023-12-07T19:50:37.936Z,34.30
2023-12-07T19:53:04.768Z,33.40
2023-12-07T19:55:31.909Z,30.98
2023-12-07T19:57:58.839Z,36.03
2023-12-07T20:00:33.248Z,35.35
2023-12-07T20:03:00.884Z,36.67
2023-12-07T20:05:27.784Z,43.78
2023-12-07T20:07:54.855Z,42.58
2023-12-07T20:10:21.660Z,42.75
2023-12-07T20:12:51.325Z,41.13
2023-12-07T20:15:21.056Z,45.38
2023-12-07T20:17:52.951Z,47.95
2023-12-07T20:20:25.088Z,44.15
2023-12-07T20:22:52.008Z,43.78
2023-12-07T20:25:22.188Z,40.75
2023-12-07T20:27:51.218Z,48.28
2023-12-07T20:30:18.073Z,47.88
2023-12-07T20:32:44.991Z,46.35
2023-12-07T20:35:13.368Z,46.67
2023-12-07T20:37:40.225Z,46.30
2023-12-07T20:40:09.763Z,50.90
2023-12-07T20:42:36.577Z,49.47
2023-12-07T20:45:04.078Z,44.95
2023-12-07T20:47:38.468Z,37.20
2023-12-07T20:50:07.398Z,40.28
2023-12-07T20:52:40.954Z,48.35
2023-12-07T20:55:12.616Z,44.67
2023-12-07T20:57:39.453Z,42.42
2023-12-07T21:00:07.056Z,37.90
2023-12-07T21:02:38.238Z,37.13
2023-12-07T21:05:10.989Z,38.60
2023-12-07T21:07:37.775Z,41.28
2023-12-07T21:10:05.053Z,42.00
2023-12-07T21:12:34.724Z,41.13
2023-12-07T21:15:11.865Z,40.53
2023-12-07T21:17:39.422Z,40.65
2023-12-07T21:20:06.865Z,36.03
2023-12-07T21:22:33.630Z,40.45
2023-12-07T21:25:00.379Z,43.60
2023-12-07T21:27:30.009Z,48.33
2023-12-07T21:29:56.801Z,40.75
2023-12-07T21:32:26.715Z,41.95
2023-12-07T21:35:04.633Z,39.65
2023-12-07T21:37:41.262Z,38.95
2023-12-07T21:40:08.533Z,29.83
2023-12-07T21:42:45.323Z,33.35
2023-12-07T21:45:15.190Z,32.08
2023-12-07T21:47:42.254Z,33.15
2023-12-07T21:50:09.281Z,34.90
2023-12-07T21:52:36.173Z,27.92
2023-12-07T21:55:12.987Z,27.25
2023-12-07T21:57:50.152Z,23.70
2023-12-07T22:00:35.420Z,22.50
2023-12-07T22:03:05.460Z,24.45
2023-12-07T22:05:32.502Z,22.17
2023-12-07T22:07:59.728Z,24.58
2023-12-07T22:10:29.800Z,20.35
2023-12-07T22:13:01.572Z,28.65
2023-12-07T22:15:33.926Z,28.73
2023-12-07T22:18:07.517Z,28.30
2023-12-07T22:20:38.143Z,25.27
2023-12-07T22:23:04.953Z,28.52
2023-12-07T22:25:31.726Z,26.92
2023-12-07T22:27:58.729Z,25.38
2023-12-07T22:30:25.632Z,21.35
2023-12-07T22:32:52.630Z,18.80
2023-12-07T22:35:24.145Z,22.75
2023-12-07T22:37:51.272Z,21.27
2023-12-07T22:40:21.169Z,18.60
2023-12-07T22:42:49.290Z,21.00
2023-12-07T22:45:16.228Z,22.85
2023-12-07T22:47:43.213Z,17.13
2023-12-07T22:50:10.259Z,18.35
2023-12-07T22:52:37.159Z,18.33
2023-12-07T22:55:04.182Z,17.88
2023-12-07T22:57:35.969Z,18.17
2023-12-07T23:00:06.798Z,19.02
2023-12-07T23:02:33.839Z,18.48
2023-12-07T23:05:02.398Z,21.00
2023-12-07T23:07:29.244Z,26.45
2023-12-07T23:09:56.179Z,29.90
2023-12-07T23:12:27.233Z,23.23
2023-12-07T23:14:54.042Z,24.13
2023-12-07T23:17:20.959Z,26.65
2023-12-07T23:19:47.795Z,21.90
2023-12-07T23:22:18.145Z,25.17
2023-12-07T23:24:44.941Z,19.27
2023-12-07T23:27:11.790Z,21.73
2023-12-07T23:29:54.767Z,19.40
2023-12-07T23:32:40.314Z,21.33
2023-12-07T23:35:10.488Z,21.20
2023-12-07T23:37:38.670Z,27.92
2023-12-07T23:40:13.138Z,24.23
2023-12-07T23:42:40.152Z,21.75
2023-12-07T23:45:10.441Z,25.95
2023-12-07T23:47:39.725Z,15.80
2023-12-07T23:50:15.663Z,16.27
2023-12-07T23:52:45.517Z,17.77
2023-12-07T23:55:22.238Z,15.60
2023-12-07T23:57:49.063Z,17.02
